Latest Weather Observations for Lameroo AWS

IDS60801

Issued at 12:31 pm CST Wednesday 28 September 2016 (issued every 30 minutes, with the page automatically refreshed every 10 minutes)

About weather observations | Map of weather stations | Latest weather observations for SA | Other Formats
Station Details ID: 025562 Name: AUSTIN PLAINS Lat: -35.38 Lon: 140.54 Height: 110.08 m
Data from the previous 72 hours. | See also: Recent months at Lameroo AWS
Date/Time
CST
Temp
°C
App
Temp
°C
Dew
Point
°C
Rel
Hum
%
Delta-T
°C
Wind Press
QNH
hPa
Press
MSL
hPa
Rain since
9am
mm
Dir  Spd
km/h
Gust
km/h
Spd
kts
Gust
kts
28/12:30pm 17.5 10.0 6.1 47 5.6 NNE 35 48 19 26 1000.7 1000.7 0.0
28/12:00pm 17.9 8.6 5.2 43 6.2 NNE 43 61 23 33 1001.0 1001.0 0.0
28/11:51am 18.1 9.7 5.7 44 6.1 NE 39 61 21 33 1001.2 1001.2 0.0
28/11:30am 18.1 10.1 5.7 44 6.1 NE 37 54 20 29 1002.1 1002.1 0.0
28/11:00am 18.3 10.2 5.2 42 6.4 NNE 37 46 20 25 1003.5 1003.5 0.0
28/10:30am 17.7 10.0 5.3 44 6.0 NE 35 44 19 24 1005.0 1004.9 0.0
28/10:00am 16.8 9.7 5.4 47 5.5 NNE 32 44 17 24 1006.0 1006.0 0.0
28/09:30am 15.8 10.3 7.6 58 4.1 NNE 26 39 14 21 1006.8 1006.8 0.0
28/09:00am 14.3 8.3 7.1 62 3.5 NNE 28 35 15 19 1007.7 1007.7 0.0
28/08:30am 12.5 7.4 7.6 72 2.4 NE 24 33 13 18 1008.1 1008.1 0.0
28/08:00am 10.7 5.9 7.2 79 1.7 NE 22 30 12 16 1009.0 1009.0 0.0
28/07:30am 8.5 3.7 5.8 83 1.2 NE 20 26 11 14 1009.3 1009.3 0.0
28/07:00am 7.0 3.1 5.5 90 0.7 NE 15 20 8 11 1009.8 1009.8 0.0
28/06:30am 4.3 0.6 4.3 100 0.0 ENE 13 15 7 8 1010.0 1010.0 0.0
28/06:00am 2.8 -1.7 2.2 96 0.2 ENE 15 15 8 8 1009.9 1009.9 0.0
28/05:30am 3.2 - - - - ENE 15 15 8 8 1010.0 1010.0 0.0
28/05:00am 2.7 -1.5 1.7 93 0.4 ENE 13 13 7 7 1010.2 1010.2 0.0
28/04:30am 2.8 -1.0 1.8 93 0.4 ENE 11 13 6 7 1010.4 1010.4 0.0
28/04:00am 3.6 -0.1 2.6 93 0.4 NNE 11 11 6 6 1010.8 1010.8 0.0
28/03:30am 4.0 0.5 3.7 98 0.1 NNE 11 13 6 7 1010.9 1010.9 0.0
28/03:00am 3.9 0.1 3.9 100 0.0 NE 13 13 7 7 1011.2 1011.2 0.0
28/02:30am 4.0 0.6 4.0 100 0.0 NE 11 13 6 7 1011.5 1011.5 0.0
28/02:00am 4.0 0.2 4.0 100 0.0 NE 13 13 7 7 1011.8 1011.8 0.0
28/01:30am 4.4 1.5 4.4 100 0.0 ENE 9 11 5 6 1012.1 1012.1 0.0
28/01:00am 4.8 1.9 4.8 100 0.0 NE 9 11 5 6 1012.4 1012.4 0.0
28/12:30am 5.5 - - - - NE 9 9 5 5 1012.8 1012.8 0.0
28/12:00am 5.8 - - - - NE 11 11 6 6 1012.9 1013.0 0.0
 
Date/Time
CST
Temp
°C
App
Temp
°C
Dew
Point
°C
Rel
Hum
%
Delta-T
°C
Wind Press
QNH
hPa
Press
MSL
hPa
Rain since
9am
mm
Dir  Spd
km/h
Gust
km/h
Spd
kts
Gust
kts
27/11:30pm 5.8 3.1 5.8 100 0.0 ENE 9 9 5 5 1013.1 1013.2 0.0
27/11:00pm 6.2 3.9 5.0 92 0.5 ENE 6 9 3 5 1013.3 1013.4 0.0
27/10:30pm 7.7 6.0 6.0 89 0.8 WNW 4 7 2 4 1013.6 1013.7 0.0
27/10:00pm 9.0 7.9 7.1 88 0.9 SW 2 2 1 1 1013.9 1013.9 0.0
27/09:30pm 9.0 7.6 7.1 88 0.9 SW 4 4 2 2 1014.0 1014.0 0.0
27/09:00pm 9.4 8.0 7.3 87 1.0 SW 4 6 2 3 1014.2 1014.2 0.0
27/08:30pm 9.4 7.9 7.0 85 1.1 SW 4 4 2 2 1014.1 1014.1 0.0
27/08:00pm 10.8 9.9 7.9 82 1.4 SW 2 2 1 1 1014.2 1014.2 0.0
27/07:30pm 11.1 10.1 7.4 78 1.8 SW 2 2 1 1 1014.1 1014.1 0.0
27/07:00pm 11.7 10.2 6.8 72 2.3 SW 4 6 2 3 1014.1 1014.1 0.0
27/06:30pm 12.5 11.1 7.2 70 2.6 SW 4 4 2 2 1014.0 1014.0 0.0
27/06:00pm 13.1 12.0 8.4 73 2.4 SW 4 4 2 2 1014.0 1014.0 0.0
27/05:30pm 13.1 11.6 8.6 74 2.3 SW 6 7 3 4 1013.9 1013.9 0.0
27/05:00pm 13.9 12.2 8.5 70 2.7 WSW 7 11 4 6 1014.1 1014.1 0.0
27/04:30pm 14.1 11.8 7.4 64 3.3 WSW 9 13 5 7 1013.9 1013.9 0.0
27/04:00pm 14.5 11.0 7.1 61 3.6 W 15 22 8 12 1014.0 1014.0 0.0
27/03:30pm 14.9 11.0 7.0 59 3.9 W 17 22 9 12 1014.1 1014.1 0.0
27/03:00pm 14.9 11.1 7.5 61 3.7 WSW 17 22 9 12 1014.0 1014.0 0.0
27/02:30pm 15.0 11.2 7.5 61 3.7 WSW 17 24 9 13 1013.9 1013.9 0.0
27/02:00pm 15.0 11.4 6.8 58 4.0 W 15 20 8 11 1014.0 1014.0 0.0
27/01:30pm 15.1 10.6 6.1 55 4.4 W 19 26 10 14 1014.2 1014.2 0.0
27/01:00pm 15.8 10.8 6.3 53 4.6 W 22 32 12 17 1014.5 1014.5 0.0
27/12:30pm 14.2 9.6 5.8 57 4.0 WSW 19 28 10 15 1014.8 1014.8 0.0
27/12:00pm 15.2 10.4 5.7 53 4.6 WSW 20 30 11 16 1015.0 1015.0 0.0
27/11:30am 14.4 9.4 4.7 52 4.5 W 20 30 11 16 1015.3 1015.3 0.0
27/11:00am 14.4 10.3 6.3 58 3.9 WSW 17 28 9 15 1015.4 1015.4 0.0
27/10:30am 13.3 9.1 5.5 59 3.7 W 17 28 9 15 1015.8 1015.8 0.0
27/10:00am 13.5 9.9 6.6 63 3.3 W 15 22 8 12 1016.0 1016.0 0.0
27/09:30am 13.0 9.1 7.0 67 2.9 W 17 26 9 14 1016.2 1016.2 0.0
27/09:00am 12.2 8.5 8.1 76 2.0 W 17 24 9 13 1016.0 1016.0 0.2
27/08:30am 10.9 7.3 8.3 84 1.3 W 17 20 9 11 1015.8 1015.8 0.2
27/08:00am 9.4 6.2 8.3 93 0.5 WNW 15 20 8 11 1015.7 1015.7 0.2
27/07:30am 8.6 - - - - WNW 13 17 7 9 1015.2 1015.2 0.2
27/07:00am 7.0 - - - - NW 9 13 5 7 1015.1 1015.1 0.2
27/06:30am 6.5 - - - - WNW 9 13 5 7 1014.8 1014.8 0.2
27/06:00am 6.5 - - - - WNW 11 15 6 8 1014.4 1014.4 0.2
27/05:30am 6.2 - - - - WNW 11 13 6 7 1014.0 1014.0 0.2
27/05:00am 6.2 - - - - WNW 13 15 7 8 1013.6 1013.7 0.2
27/04:30am 7.2 - - - - W 13 17 7 9 1013.4 1013.5 0.2
27/04:00am 6.9 - - - - W 13 17 7 9 1013.0 1013.1 0.2
27/03:30am 3.0 - - - - WNW 13 15 7 8 1013.1 1013.2 0.0
27/03:00am 3.2 - - - - WNW 13 15 7 8 1013.0 1013.1 0.0
27/02:30am 3.6 - - - - WNW 13 15 7 8 1012.9 1013.0 0.0
27/02:00am 3.5 - - - - WNW 9 13 5 7 1013.1 1013.2 0.0
27/01:30am 4.7 - - - - WNW 9 9 5 5 1013.3 1013.4 0.0
27/01:00am 5.4 - - - - W 7 9 4 5 1013.6 1013.7 0.0
27/12:30am 3.7 - - - - NW 13 15 7 8 1013.5 1013.6 0.0
27/12:00am 4.2 0.8 4.2 100 0.0 WNW 11 13 6 7 1013.3 1013.4 0.0
 
Date/Time
CST
Temp
°C
App
Temp
°C
Dew
Point
°C
Rel
Hum
%
Delta-T
°C
Wind Press
QNH
hPa
Press
MSL
hPa
Rain since
9am
mm
Dir  Spd
km/h
Gust
km/h
Spd
kts
Gust
kts
26/11:30pm 5.6 - - - - W 13 15 7 8 1013.4 1013.5 0.0
26/11:00pm 5.7 - - - - WNW 15 17 8 9 1013.6 1013.7 0.0
26/10:30pm 6.1 2.5 4.9 92 0.5 W 13 13 7 7 1013.6 1013.7 0.0
26/10:00pm 6.4 3.2 5.0 91 0.6 WNW 11 13 6 7 1013.5 1013.6 0.0
26/09:30pm 7.8 4.4 6.1 89 0.8 W 13 17 7 9 1013.4 1013.5 0.0
26/09:00pm 8.6 4.5 6.2 85 1.1 WSW 17 22 9 12 1013.3 1013.4 0.0
26/08:30pm 9.1 4.8 6.9 86 1.0 W 19 24 10 13 1013.0 1013.1 0.0
26/08:00pm 8.3 3.9 6.4 88 0.9 WSW 19 24 10 13 1012.7 1012.7 0.0
26/07:30pm 8.2 4.4 6.0 86 1.0 WSW 15 20 8 11 1012.5 1012.5 0.0
26/07:00pm 9.1 4.0 6.0 81 1.4 SW 22 28 12 15 1012.0 1012.0 0.0
26/06:30pm 10.2 4.3 3.9 65 2.8 W 24 32 13 17 1011.5 1011.5 0.0
26/06:00pm 11.3 5.4 4.1 61 3.2 W 24 33 13 18 1011.3 1011.3 0.0
26/05:30pm 12.5 7.3 5.7 63 3.2 W 22 32 12 17 1010.9 1010.9 0.0
26/05:00pm 13.5 6.9 6.1 61 3.5 W 30 43 16 23 1010.4 1010.4 0.0
26/04:30pm 14.2 8.5 6.6 60 3.7 W 26 39 14 21 1010.1 1010.1 0.0
26/04:00pm 13.7 9.3 9.0 73 2.4 WSW 22 32 12 17 1009.9 1009.9 0.0
26/03:30pm 14.3 9.7 9.5 73 2.5 WSW 24 33 13 18 1010.1 1010.1 0.0
26/03:00pm 15.0 9.8 10.2 73 2.5 SW 28 35 15 19 1009.8 1009.8 0.0
26/02:30pm 13.8 9.5 7.1 64 3.3 WSW 19 28 10 15 1009.8 1009.8 0.0
26/02:00pm 16.0 10.0 7.0 55 4.5 WNW 28 37 15 20 1009.5 1009.5 0.0
26/01:30pm 16.2 10.1 6.6 53 4.7 NW 28 35 15 19 1009.8 1009.8 0.0
26/01:00pm 15.7 10.6 6.2 53 4.6 NW 22 32 12 17 1010.2 1010.2 0.0
26/12:30pm 15.8 10.4 6.5 54 4.6 NW 24 33 13 18 1010.6 1010.6 0.0
26/12:00pm 15.4 10.0 6.4 55 4.4 NNW 24 32 13 17 1010.9 1010.9 0.0
26/11:30am 15.4 10.1 6.9 57 4.2 NNW 24 35 13 19 1011.2 1011.2 0.0
26/11:00am 16.7 11.1 7.1 53 4.8 NNW 26 35 14 19 1011.3 1011.3 0.0
26/10:30am 15.8 10.6 7.3 57 4.2 NNW 24 33 13 18 1011.8 1011.8 0.0
26/10:00am 14.6 10.6 8.3 66 3.2 NNW 19 26 10 14 1012.3 1012.3 0.0
26/09:30am 13.8 8.5 6.7 62 3.4 NNW 24 32 13 17 1012.6 1012.6 0.0
26/09:00am 12.5 7.5 6.5 67 2.9 N 22 30 12 16 1012.6 1012.6 0.0
26/08:30am 11.9 7.5 7.6 75 2.1 N 20 26 11 14 1012.8 1012.8 0.0
26/08:00am 10.6 7.2 7.7 82 1.4 N 15 24 8 13 1012.8 1012.8 0.0
26/07:30am 8.8 5.7 7.1 89 0.8 N 13 17 7 9 1012.9 1013.0 0.0
26/07:00am 6.6 - - - - NE 9 11 5 6 1012.7 1012.7 0.0
26/06:30am 5.0 - - - - NNE 9 11 5 6 1012.8 1012.8 0.0
26/06:00am 4.5 - - - - NNE 9 11 5 6 1012.7 1012.7 0.0
26/05:30am 4.1 - - - - NE 11 11 6 6 1012.4 1012.4 0.0
26/05:00am 4.2 0.6 3.2 93 0.4 NE 11 11 6 6 1012.5 1012.5 0.0
26/04:30am 5.8 3.3 4.6 92 0.5 NNE 7 9 4 5 1012.8 1012.8 0.0
26/04:00am 6.0 - - - - NNW 9 11 5 6 1013.1 1013.2 0.0
26/03:30am 5.5 2.3 4.9 96 0.3 NNW 11 11 6 6 1013.2 1013.3 0.0
26/03:00am 5.8 3.5 4.8 93 0.4 N 6 6 3 3 1013.3 1013.4 0.0
26/02:30am 6.7 4.4 5.8 94 0.4 N 7 9 4 5 1013.5 1013.6 0.0
26/02:00am 7.0 4.3 5.8 92 0.5 N 9 9 5 5 1014.1 1014.1 0.0
26/01:30am 7.4 5.2 6.2 92 0.5 NNW 7 9 4 5 1014.5 1014.5 0.0
26/01:00am 7.5 5.8 6.1 91 0.6 WNW 4 6 2 3 1014.8 1014.8 0.0
26/12:30am 7.6 5.9 5.9 89 0.8 SSW 4 4 2 2 1015.0 1015.0 0.0
26/12:00am 7.5 5.2 5.8 89 0.8 S 7 9 4 5 1014.9 1014.9 0.0
 
Date/Time
CST
Temp
°C
App
Temp
°C
Dew
Point
°C
Rel
Hum
%
Delta-T
°C
Wind Press
QNH
hPa
Press
MSL
hPa
Rain since
9am
mm
Dir  Spd
km/h
Gust
km/h
Spd
kts
Gust
kts
25/11:30pm 7.0 4.7 5.6 91 0.6 WSW 7 9 4 5 1015.3 1015.3 0.0
25/11:00pm 8.1 5.9 6.4 89 0.8 WNW 7 7 4 4 1015.1 1015.1 0.0
25/10:30pm 8.3 6.4 6.6 89 0.8 NW 6 6 3 3 1015.3 1015.3 0.0
25/10:00pm 8.8 6.7 6.8 87 0.9 NW 7 9 4 5 1015.3 1015.3 0.0
25/09:30pm 9.7 7.8 7.5 86 1.1 NW 7 7 4 4 1015.3 1015.3 0.0
25/09:00pm 9.9 7.9 7.0 82 1.4 NNW 7 7 4 4 1015.2 1015.2 0.0
25/08:30pm 9.8 8.0 7.2 84 1.2 N 6 7 3 4 1015.1 1015.1 0.0
25/08:00pm 10.7 10.1 7.4 80 1.6 CALM 0 0 0 0 1014.9 1014.9 0.0
25/07:30pm 10.6 9.6 7.3 80 1.6 WNW 2 6 1 3 1014.7 1014.7 0.0
25/07:00pm 11.4 9.8 6.5 72 2.3 WSW 4 4 2 2 1014.3 1014.3 0.0
25/06:30pm 11.5 10.4 6.8 73 2.2 WSW 2 4 1 2 1013.9 1013.9 0.0
25/06:00pm 12.4 11.0 7.1 70 2.6 WSW 4 4 2 2 1013.8 1013.8 0.0
25/05:30pm 12.3 10.5 8.0 75 2.1 WSW 7 9 4 5 1013.5 1013.6 0.0
25/05:00pm 13.0 11.0 7.2 68 2.8 WSW 7 9 4 5 1013.5 1013.6 0.0
25/04:30pm 13.3 10.0 6.6 64 3.2 WSW 13 17 7 9 1013.3 1013.4 0.0
25/04:00pm 13.5 10.4 7.1 65 3.1 WSW 13 20 7 11 1013.1 1013.2 0.0
25/03:30pm 13.6 10.5 7.4 66 3.0 WSW 13 17 7 9 1013.2 1013.3 0.0
25/03:00pm 14.2 10.2 5.0 54 4.3 WSW 15 22 8 12 1013.2 1013.3 0.0
25/02:30pm 14.2 9.6 5.8 57 4.0 WSW 19 24 10 13 1013.1 1013.2 0.0
25/02:00pm 14.1 10.6 7.4 64 3.3 WSW 15 32 8 17 1013.4 1013.5 0.0
25/01:30pm 13.0 9.3 7.9 71 2.5 WSW 17 22 9 12 1013.5 1013.6 0.0
25/01:00pm 13.0 10.3 7.2 68 2.8 W 11 26 6 14 1013.8 1013.8 0.0

Other Formats:

Comma delimited format used in spreadsheet applications
http://www.bom.gov.au/fwo/IDS60801/IDS60801.94690.axf

JavaScript Object Notation format (JSON) in row-major order
http://www.bom.gov.au/fwo/IDS60801/IDS60801.94690.json